Nearby METAR Reports

 

KBJC - Broomfield/Jeffc, Colorado, USA
Distance from station: NNW 11mi, 17km
Updated: 01/17/2018 10:34pm
Clear
Clear
 Wind from SW
Wind: SW 3 mph , 6 km/h
Temperature: 32°F , 0°C
Dew Point: 7°F , -14°C
Humidity: 34%
Barometer: 30.20 inHg , 1022.7 hPa
Clouds: Clear
Visibility: 10 miles , 16 km
2018/01/18 05:34 KBJC 180534Z AUTO 22003KT 10SM CLR 00/M14 A3020 RMK AO2
KBKF - Buckley Angb/Den, Colorado, USA
Distance from station: E 16mi, 25km
Updated: 01/17/2018 9:58pm
Clear
Clear
 Wind from S
Wind: S 12 mph , 19 km/h
Temperature: 30°F , -1°C
Wind Chill: 20°F , -7°C
Dew Point: 14°F , -10°C
Humidity: 51%
Barometer: 30.22 inHg , 1023.4 hPa
Clouds: Clear
Visibility: 10 miles , 16 km
2018/01/18 04:58 KBKF 180458Z 18010KT 10SM CLR M01/M10 A3022 RMK AO2A SLP246 T10111105
 
KAPA - Denver/Arapahoe, Colorado, USA
Distance from station: SE 16mi, 26km
Updated: 01/17/2018 9:53pm
Clear
Clear
 Wind from SE
Wind: SE 9 mph , 15 km/h
Temperature: 30°F , -1°C
Wind Chill: 22°F , -6°C
Dew Point: 10°F , -12°C
Humidity: 43%
Barometer: 30.22 inHg , 1023.4 hPa
Clouds: Clear
Visibility: 10 miles , 16 km
2018/01/18 04:53 KAPA 180453Z 14008KT 10SM CLR M01/M12 A3022 RMK AO2 SLP258 T10111122 $
KEIK - Erie Muni, Colorado, USA
Distance from station: N 18mi, 29km
Updated: 01/17/2018 10:36pm
Clear
Clear
 Wind from calm
Wind: Calm
Temperature: 21°F , -6°C
Dew Point: 14°F , -10°C
Humidity: 74%
Barometer: 30.26 inHg , 1024.7 hPa
Clouds: Clear
Visibility: 10 miles , 16 km
2018/01/18 05:36 KEIK 180536Z AUTO 00000KT 10SM CLR M06/M10 A3026 RMK AO2 T10571099
 
KBDU - Boulder Muni, Colorado, USA
Distance from station: NNW 22mi, 35km
Updated: 01/17/2018 10:36pm
Clear
Clear
 Wind from calm
Wind: Calm
Temperature: 30°F , -1°C
Dew Point: 14°F , -10°C
Humidity: 51%
Barometer: 30.20 inHg , 1022.7 hPa
Clouds: Clear
Visibility: 10 miles , 16 km
2018/01/18 05:36 KBDU 180536Z AUTO 00000KT 10SM CLR M01/M10 A3020 RMK AO2
KDEN - Denver (dia), Colorado, USA
Distance from station: ENE 22mi, 35km
Updated: 01/17/2018 9:53pm
Clear
Clear
 Wind from S
Wind: S 10 mph , 17 km/h
Temperature: 25°F , -4°C
Wind Chill: 15°F , -9°C
Dew Point: 16°F , -9°C
Humidity: 69%
Barometer: 30.21 inHg , 1023 hPa
Clouds: Clear
Visibility: 10 miles , 16 km
2018/01/18 04:53 KDEN 180453Z 18009KT 10SM CLR M04/M09 A3021 RMK AO2 SLP252 T10391094
 
KFTG - Denver F. Range, Colorado, USA
Distance from station: E 26mi, 42km
Updated: 01/17/2018 10:30pm
Clear
Clear
 Wind from S
Wind: S 8 mph , 13 km/h
Temperature: 28°F , -2°C
Wind Chill: 20°F , -7°C
Dew Point: 19°F , -7°C
Humidity: 69%
Barometer: 30.21 inHg , 1023 hPa
Clouds: Clear
Visibility: 10 miles , 16 km
2018/01/18 05:30 KFTG 180530Z AUTO 17007KT 10SM CLR M02/M07 A3021 RMK AO2 T10181074
KLMO - Longmont/Vbrand, Colorado, USA
Distance from station: NNW 29mi, 47km
Updated: 01/17/2018 10:35pm
Clear
Clear
 Wind from W
Wind: W 3 mph , 6 km/h
Temperature: 30°F , -1°C
Dew Point: 14°F , -10°C
Humidity: 51%
Barometer: 30.23 inHg , 1023.7 hPa
Clouds: Clear
Visibility: 10 miles , 16 km
2018/01/18 05:35 KLMO 180535Z AUTO 28003KT 10SM CLR M01/M10 A3023 RMK AO2 T10151102
 
K0CO - Berthoud Pass, Colorado, USA
Distance from station: W 39mi, 62km
Updated: 01/17/2018 10:30pm
Clear
Clear
 Wind from NW
Wind: NW 23 mph , 37 km/h, Gust: 30 mph , 48 km/h
Temperature: 12°F , -11°C
Wind Chill: -7°F , -22°C
Dew Point: 1°F , -17°C
Humidity: 62%
Barometer: 30.33 inHg , 1027.1 hPa
Clouds: Clear
Visibility: 10 miles , 16 km
2018/01/18 05:30 K0CO 180530Z AUTO 31020G26KT 10SM CLR M11/M17 A3033 RMK AO2
KMNH - Monument/Elbert, Colorado, USA
Distance from station: SSE 43mi, 68km
Updated: 01/17/2018 10:30pm
Clear
Clear
 Wind from S
Wind: S 10 mph , 17 km/h
Temperature: 25°F , -4°C
Wind Chill: 15°F , -9°C
Dew Point: 9°F , -13°C
Humidity: 50%
Barometer: 30.25 inHg , 1024.4 hPa
Clouds: Clear
Visibility: 10 miles , 16 km
2018/01/18 05:30 KMNH 180530Z AUTO 19009KT 10SM CLR M04/M13 A3025 RMK AO2
 
KFNL - Ft Collins/Lovel, Colorado, USA
Distance from station: N 48mi, 78km
Updated: 01/17/2018 9:56pm
Clear
Clear
 Wind from SSW
Wind: SSW 3 mph , 6 km/h
Temperature: 34°F , 1°C
Dew Point: 12°F , -11°C
Humidity: 41%
Barometer: 30.22 inHg , 1023.4 hPa
Clouds: Clear
Visibility: 10 miles , 16 km
2018/01/18 04:56 KFNL 180456Z AUTO 21003KT 10SM CLR 01/M11 A3022 RMK AO2 SLP252 T00111106 FZRANO